Time;durP1;ratioP1;P1;durP2;ratioP2;P2;SDS_P1;SDS_P2;PMS_P1;PMS_P2;Temp;Humidity;BMP_temperature;BMP_pressure;BME280_temperature;BME280_humidity;BME280_pressure;Samples;Min_cycle;Max_cycle;Signal;HPM_P1;HPM_P2
2023/10/28 00:01:18;;;;;;;1.13;1.13;;;8.80;99.90;;;;;;5033502;28;20426;-81
2023/10/28 00:03:45;;;;;;;0.50;0.50;;;8.70;99.90;;;;;;5028014;28;20214;-82
2023/10/28 00:06:13;;;;;;;0.60;0.60;;;8.70;99.90;;;;;;5030641;28;20205;-81
2023/10/28 00:08:40;;;;;;;0.40;0.40;;;8.70;99.90;;;;;;5026596;28;20240;-80
2023/10/28 00:11:08;;;;;;;1.65;1.50;;;8.80;99.90;;;;;;5043625;28;20205;-81
2023/10/28 00:13:35;;;;;;;2.13;1.95;;;8.70;99.90;;;;;;5027835;28;20466;-79
2023/10/28 00:16:02;;;;;;;2.45;1.80;;;8.70;99.90;;;;;;5028023;28;20229;-79
2023/10/28 00:18:29;;;;;;;1.33;1.23;;;8.70;99.90;;;;;;5018642;28;20210;-81
2023/10/28 00:20:56;;;;;;;1.02;1.02;;;8.70;99.90;;;;;;5025015;28;20263;-80
2023/10/28 00:23:25;;;;;;;4.22;4.00;;;8.70;99.90;;;;;;5021955;28;20223;-80
2023/10/28 00:26:00;;;;;;;0.73;0.73;;;8.70;99.90;;;;;;5026027;28;20236;-80
2023/10/28 00:28:28;;;;;;;1.60;1.50;;;8.80;99.90;;;;;;5026525;28;20233;-81
2023/10/28 00:30:55;;;;;;;0.60;0.60;;;8.80;99.90;;;;;;5024910;28;20279;-80
2023/10/28 00:33:23;;;;;;;0.82;0.80;;;8.70;99.90;;;;;;5014768;28;20205;-81
2023/10/28 00:35:49;;;;;;;2.45;2.28;;;8.70;99.90;;;;;;5018590;28;20233;-81
2023/10/28 00:38:17;;;;;;;0.63;0.63;;;8.80;99.90;;;;;;5026955;28;20596;-80
2023/10/28 00:40:44;;;;;;;1.85;1.75;;;8.70;99.90;;;;;;5017572;28;20300;-79
2023/10/28 00:43:12;;;;;;;0.93;0.93;;;8.70;99.90;;;;;;5014272;28;20205;-80
2023/10/28 00:45:40;;;;;;;2.83;2.63;;;8.70;99.90;;;;;;5027679;28;20300;-80
2023/10/28 00:48:07;;;;;;;0.70;0.70;;;8.70;99.90;;;;;;5033831;28;20552;-82
2023/10/28 00:50:34;;;;;;;0.80;0.80;;;8.70;99.90;;;;;;5014752;28;20214;-80
2023/10/28 00:53:02;;;;;;;1.25;1.23;;;8.80;99.90;;;;;;5024123;28;20273;-80
2023/10/28 00:55:30;;;;;;;0.70;0.70;;;8.80;99.90;;;;;;5027778;28;20468;-81
2023/10/28 00:57:58;;;;;;;1.02;1.02;;;8.70;99.90;;;;;;5034738;28;20264;-82
2023/10/28 01:00:25;;;;;;;0.70;0.70;;;8.70;99.90;;;;;;5035461;28;20216;-80
2023/10/28 01:02:52;;;;;;;1.10;1.00;;;8.60;99.90;;;;;;5032414;28;20247;-80
2023/10/28 01:05:21;;;;;;;0.88;0.88;;;8.60;99.90;;;;;;5032085;28;20216;-81
2023/10/28 01:07:50;;;;;;;2.17;2.08;;;8.60;99.90;;;;;;5031672;28;20399;-82
2023/10/28 01:10:27;;;;;;;2.67;2.58;;;8.50;99.90;;;;;;5028754;28;20438;-81
2023/10/28 01:12:54;;;;;;;1.42;1.33;;;8.50;99.90;;;;;;5027286;28;20237;-81
2023/10/28 01:15:23;;;;;;;3.25;3.15;;;8.40;99.90;;;;;;5033977;28;20232;-81
2023/10/28 01:17:50;;;;;;;1.05;1.05;;;8.40;99.90;;;;;;5026503;28;20232;-80
2023/10/28 01:20:17;;;;;;;6.10;3.95;;;8.40;99.90;;;;;;5023723;28;20237;-80
2023/10/28 01:22:45;;;;;;;0.70;0.70;;;8.40;99.90;;;;;;5022832;28;20209;-80
2023/10/28 01:25:12;;;;;;;0.50;0.50;;;8.50;99.90;;;;;;5013388;28;20250;-80
2023/10/28 01:27:39;;;;;;;0.40;0.40;;;8.50;99.90;;;;;;5037679;28;20625;-80
2023/10/28 01:30:13;;;;;;;1.88;1.77;;;8.60;99.90;;;;;;5027269;28;20450;-81
2023/10/28 01:32:42;;;;;;;2.45;1.77;;;8.60;99.90;;;;;;5029182;28;20209;-80
2023/10/28 01:35:10;;;;;;;1.55;1.45;;;8.60;99.90;;;;;;5035086;28;20216;-81
2023/10/28 01:37:38;;;;;;;1.27;1.27;;;8.70;99.90;;;;;;5023702;28;20202;-80
2023/10/28 01:40:12;;;;;;;3.10;2.80;;;8.70;99.90;;;;;;5034605;28;20212;-80
2023/10/28 01:42:45;;;;;;;0.80;0.80;;;8.60;99.90;;;;;;5028800;28;20482;-80
2023/10/28 01:45:15;;;;;;;1.13;1.13;;;8.70;99.90;;;;;;5036055;28;20209;-80
2023/10/28 01:47:43;;;;;;;2.95;2.75;;;8.70;99.90;;;;;;5025711;28;20245;-80
2023/10/28 01:50:11;;;;;;;0.30;0.30;;;8.70;99.90;;;;;;5031547;28;20205;-79
2023/10/28 01:52:40;;;;;;;0.88;0.75;;;8.70;99.90;;;;;;5022867;28;20213;-79
2023/10/28 01:55:09;;;;;;;0.90;0.90;;;8.80;99.90;;;;;;5029039;28;20214;-80
2023/10/28 01:57:36;;;;;;;1.10;1.10;;;8.70;99.90;;;;;;5014095;28;20210;-79
2023/10/28 02:00:06;;;;;;;2.78;2.58;;;8.80;99.90;;;;;;5026926;28;20225;-80
2023/10/28 02:02:36;;;;;;;2.85;2.65;;;8.80;99.90;;;;;;5020353;28;20232;-80
2023/10/28 02:05:04;;;;;;;2.78;2.67;;;8.80;99.90;;;;;;5027557;28;20235;-80
2023/10/28 02:07:33;;;;;;;2.15;2.05;;;8.80;99.90;;;;;;5031572;28;20272;-81
2023/10/28 02:10:00;;;;;;;1.98;1.88;;;8.80;99.90;;;;;;5021991;28;20276;-80
2023/10/28 02:12:27;;;;;;;1.20;1.20;;;8.90;99.90;;;;;;5024887;28;20239;-81
2023/10/28 02:14:54;;;;;;;0.50;0.50;;;8.90;99.90;;;;;;5024098;28;20280;-82
2023/10/28 02:17:21;;;;;;;0.60;0.60;;;8.80;99.90;;;;;;5025398;28;20221;-82
2023/10/28 02:19:48;;;;;;;0.65;0.65;;;8.90;99.90;;;;;;5025581;28;20280;-80
2023/10/28 02:22:15;;;;;;;2.05;1.95;;;8.90;99.90;;;;;;5026239;28;20604;-81
2023/10/28 02:24:42;;;;;;;1.00;1.00;;;8.90;99.90;;;;;;5020496;28;20248;-79
2023/10/28 02:27:10;;;;;;;0.60;0.60;;;8.90;99.90;;;;;;5022552;28;20245;-81
2023/10/28 02:29:37;;;;;;;0.60;0.60;;;8.90;99.90;;;;;;5022178;28;20392;-81
2023/10/28 02:32:05;;;;;;;0.80;0.80;;;8.90;99.90;;;;;;5017151;28;20256;-80
2023/10/28 02:34:33;;;;;;;1.52;1.42;;;8.90;99.90;;;;;;5030135;28;20217;-81
2023/10/28 02:37:01;;;;;;;0.30;0.30;;;8.90;99.90;;;;;;5026579;28;20209;-81
2023/10/28 02:39:29;;;;;;;2.50;1.88;;;9.00;99.90;;;;;;5023702;28;20525;-80
2023/10/28 02:41:57;;;;;;;2.83;2.63;;;8.90;99.90;;;;;;5014223;28;20301;-81
2023/10/28 02:44:24;;;;;;;0.50;0.50;;;8.90;99.90;;;;;;5019117;28;20268;-82
2023/10/28 02:46:53;;;;;;;2.28;2.17;;;8.90;99.90;;;;;;5032172;28;20201;-82
2023/10/28 02:49:23;;;;;;;1.60;1.55;;;9.00;99.90;;;;;;5026641;28;20194;-82
2023/10/28 02:51:50;;;;;;;1.23;1.23;;;9.00;99.90;;;;;;5019576;28;20282;-82
2023/10/28 02:54:17;;;;;;;2.83;2.72;;;9.00;99.90;;;;;;5027690;28;20300;-81
2023/10/28 02:56:45;;;;;;;5.35;2.15;;;9.00;99.90;;;;;;5028439;28;20508;-81
2023/10/28 02:59:12;;;;;;;0.50;0.50;;;8.90;99.90;;;;;;5016805;28;20202;-83
2023/10/28 03:01:39;;;;;;;1.98;1.88;;;9.00;99.90;;;;;;5021388;28;20237;-79
2023/10/28 03:04:07;;;;;;;0.60;0.60;;;9.00;99.90;;;;;;5027175;28;20248;-81
2023/10/28 03:06:34;;;;;;;6.32;5.72;;;9.00;99.90;;;;;;5031479;28;20236;-80
2023/10/28 03:09:01;;;;;;;2.33;2.08;;;9.00;99.90;;;;;;5029946;28;20201;-81
2023/10/28 03:11:28;;;;;;;0.90;0.90;;;9.00;99.90;;;;;;5020071;28;20228;-82
2023/10/28 03:13:55;;;;;;;2.05;1.95;;;9.00;99.90;;;;;;5031314;28;20206;-82
2023/10/28 03:16:22;;;;;;;0.52;0.52;;;9.00;99.90;;;;;;5025812;28;20213;-80
2023/10/28 03:18:48;;;;;;;1.08;1.08;;;9.00;99.90;;;;;;5033719;28;20201;-82
2023/10/28 03:21:16;;;;;;;0.60;0.60;;;9.00;99.90;;;;;;5026683;28;20296;-82
2023/10/28 03:23:43;;;;;;;1.30;1.30;;;9.00;99.90;;;;;;5018867;28;20281;-83
2023/10/28 03:26:10;;;;;;;0.85;0.85;;;9.10;99.90;;;;;;5019008;28;20205;-81
2023/10/28 03:28:37;;;;;;;0.57;0.57;;;9.00;99.90;;;;;;5019160;28;20243;-81
2023/10/28 03:31:09;;;;;;;0.73;0.73;;;9.10;99.90;;;;;;5026068;28;20214;-82
2023/10/28 03:33:37;;;;;;;0.90;0.90;;;9.10;99.90;;;;;;5028597;28;20275;-82
2023/10/28 03:36:05;;;;;;;0.35;0.35;;;9.10;99.90;;;;;;5004396;28;20206;-82
2023/10/28 03:38:33;;;;;;;1.15;1.15;;;9.10;99.90;;;;;;5029138;28;20212;-81
2023/10/28 03:41:06;;;;;;;0.50;0.50;;;9.10;99.90;;;;;;5023627;28;20208;-82
2023/10/28 03:43:33;;;;;;;0.73;0.73;;;9.10;99.90;;;;;;5030437;28;20200;-82
2023/10/28 03:46:01;;;;;;;0.73;0.73;;;9.00;99.90;;;;;;5030649;28;20271;-81
2023/10/28 03:48:30;;;;;;;0.85;0.85;;;9.10;99.90;;;;;;5029418;28;20216;-81
2023/10/28 03:51:02;;;;;;;0.50;0.50;;;9.10;99.90;;;;;;5020623;28;20272;-82
2023/10/28 03:53:30;;;;;;;2.08;1.98;;;9.10;99.90;;;;;;5005043;28;20554;-80
2023/10/28 03:55:58;;;;;;;0.98;0.98;;;9.10;99.90;;;;;;5038051;28;20247;-82
2023/10/28 03:58:25;;;;;;;0.90;0.90;;;9.10;99.90;;;;;;5046377;28;20228;-82
2023/10/28 04:00:55;;;;;;;0.98;0.98;;;9.10;99.90;;;;;;5011258;28;20249;-81
2023/10/28 04:03:24;;;;;;;0.93;0.93;;;9.10;99.90;;;;;;5021970;28;20369;-81
2023/10/28 04:05:53;;;;;;;0.70;0.70;;;9.10;99.90;;;;;;5023802;28;20197;-80
2023/10/28 04:08:20;;;;;;;0.68;0.68;;;9.20;99.90;;;;;;5028744;28;20271;-79
2023/10/28 04:10:47;;;;;;;2.17;2.08;;;9.20;99.90;;;;;;5018601;28;20244;-82
2023/10/28 04:13:14;;;;;;;1.67;1.55;;;9.20;99.90;;;;;;5024361;28;20201;-82
2023/10/28 04:15:41;;;;;;;0.57;0.57;;;9.20;99.90;;;;;;5027412;28;20232;-82
2023/10/28 04:18:08;;;;;;;0.82;0.82;;;9.20;99.90;;;;;;5027196;28;20215;-84
2023/10/28 04:20:37;;;;;;;2.17;2.08;;;9.20;99.90;;;;;;5018025;28;20255;-82
2023/10/28 04:23:06;;;;;;;0.70;0.70;;;9.10;99.90;;;;;;5023248;28;20344;-82
2023/10/28 04:25:33;;;;;;;0.90;0.90;;;9.10;99.90;;;;;;5031572;28;20236;-81
2023/10/28 04:28:01;;;;;;;1.15;1.15;;;9.10;99.90;;;;;;5023004;28;20197;-82
2023/10/28 04:30:30;;;;;;;3.35;2.17;;;9.10;99.90;;;;;;5014271;28;20202;-79
2023/10/28 04:32:57;;;;;;;1.92;1.80;;;9.00;99.90;;;;;;5025876;28;20226;-82
2023/10/28 04:35:24;;;;;;;0.80;0.80;;;9.00;99.90;;;;;;4984545;28;1425799;-83
2023/10/28 04:37:55;;;;;;;0.93;0.93;;;9.10;99.90;;;;;;5033973;28;20236;-80
2023/10/28 04:40:24;;;;;;;1.02;1.02;;;9.10;99.90;;;;;;5021826;28;20439;-82
2023/10/28 04:42:52;;;;;;;1.65;1.55;;;9.10;99.90;;;;;;5025553;28;20544;-82
2023/10/28 04:45:21;;;;;;;2.33;2.13;;;9.20;99.90;;;;;;5021766;28;20525;-81
2023/10/28 04:47:50;;;;;;;2.95;2.53;;;9.20;99.90;;;;;;5028566;28;20265;-82
2023/10/28 04:50:18;;;;;;;0.40;0.40;;;9.20;99.90;;;;;;5028403;28;20202;-79
2023/10/28 04:52:45;;;;;;;0.30;0.30;;;9.20;99.90;;;;;;5029170;28;20585;-80
2023/10/28 04:55:12;;;;;;;0.68;0.68;;;9.20;99.90;;;;;;5021501;28;20205;-81
2023/10/28 04:57:41;;;;;;;1.75;1.65;;;9.20;99.90;;;;;;5026660;28;20220;-80
2023/10/28 05:00:09;;;;;;;1.33;1.27;;;9.20;99.90;;;;;;5027418;28;20209;-81
2023/10/28 05:02:36;;;;;;;0.30;0.30;;;9.20;99.90;;;;;;5020895;28;20256;-82
2023/10/28 05:05:04;;;;;;;1.27;1.27;;;9.10;99.90;;;;;;5022658;28;20213;-81
2023/10/28 05:07:32;;;;;;;1.48;1.38;;;9.00;99.90;;;;;;5025977;28;20705;-81
2023/10/28 05:09:59;;;;;;;2.15;2.00;;;9.00;99.90;;;;;;5034577;28;20273;-80
2023/10/28 05:12:26;;;;;;;0.70;0.70;;;9.00;99.90;;;;;;5024643;28;20240;-80
2023/10/28 05:14:53;;;;;;;0.98;0.98;;;9.00;99.90;;;;;;5027485;28;20209;-81
2023/10/28 05:17:21;;;;;;;0.82;0.82;;;9.00;99.90;;;;;;5031363;28;20200;-81
2023/10/28 05:19:47;;;;;;;0.40;0.40;;;9.00;99.90;;;;;;5026471;28;20268;-81
2023/10/28 05:22:17;;;;;;;0.85;0.85;;;9.00;99.90;;;;;;5032734;28;20283;-82
2023/10/28 05:24:44;;;;;;;1.00;1.00;;;8.90;99.90;;;;;;5032116;28;20536;-81
2023/10/28 05:27:12;;;;;;;0.40;0.40;;;8.90;99.90;;;;;;5030580;28;20310;-83
2023/10/28 05:29:39;;;;;;;2.50;2.40;;;8.90;99.90;;;;;;5023796;28;20486;-83
2023/10/28 05:32:06;;;;;;;3.15;2.95;;;8.90;99.90;;;;;;5028271;28;20276;-84
2023/10/28 05:34:33;;;;;;;1.02;1.02;;;8.90;99.90;;;;;;5024974;28;20212;-81
2023/10/28 05:37:01;;;;;;;1.05;1.00;;;8.80;99.90;;;;;;5033166;28;20251;-82
2023/10/28 05:39:28;;;;;;;1.30;1.25;;;8.90;99.90;;;;;;5027819;28;20241;-81
2023/10/28 05:41:54;;;;;;;0.82;0.75;;;9.00;99.90;;;;;;5016795;28;20640;-81
2023/10/28 05:44:22;;;;;;;0.40;0.40;;;8.90;99.90;;;;;;5028811;28;20232;-83
2023/10/28 05:46:49;;;;;;;1.40;0.88;;;8.90;99.90;;;;;;5029540;28;20209;-81
2023/10/28 05:49:16;;;;;;;0.90;0.90;;;8.90;99.90;;;;;;5024871;28;20221;-82
2023/10/28 05:51:43;;;;;;;1.05;1.05;;;9.00;99.90;;;;;;5035548;28;20202;-81
2023/10/28 05:54:11;;;;;;;1.27;1.27;;;8.90;99.90;;;;;;5031812;28;20232;-80
2023/10/28 05:56:38;;;;;;;0.68;0.68;;;8.90;99.90;;;;;;5027947;28;20258;-81
2023/10/28 05:59:05;;;;;;;1.65;1.65;;;8.80;99.90;;;;;;5021408;28;20198;-80
2023/10/28 06:01:32;;;;;;;2.10;2.00;;;8.70;99.90;;;;;;5018632;28;20213;-81
2023/10/28 06:04:00;;;;;;;0.93;0.93;;;8.60;99.90;;;;;;5025428;28;20205;-83
2023/10/28 06:06:28;;;;;;;1.95;1.85;;;8.40;99.90;;;;;;5030566;28;20233;-83
2023/10/28 06:08:56;;;;;;;0.50;0.50;;;8.40;99.90;;;;;;5035065;28;20280;-81
2023/10/28 06:11:24;;;;;;;10.90;1.92;;;8.20;99.90;;;;;;5035756;28;20232;-80
2023/10/28 06:13:52;;;;;;;0.68;0.68;;;8.40;99.90;;;;;;5021224;28;20579;-82
2023/10/28 06:16:19;;;;;;;0.40;0.40;;;8.30;99.90;;;;;;5024556;28;20209;-81
2023/10/28 06:18:46;;;;;;;0.38;0.38;;;8.20;99.90;;;;;;5028936;28;20212;-81
2023/10/28 06:21:16;;;;;;;1.92;1.20;;;8.20;99.90;;;;;;5019399;28;20272;-81
2023/10/28 06:23:43;;;;;;;0.77;0.77;;;8.20;99.90;;;;;;5026733;28;20533;-81
2023/10/28 06:26:10;;;;;;;1.95;1.85;;;8.20;99.90;;;;;;5019683;28;20293;-81
2023/10/28 06:28:37;;;;;;;5.75;5.45;;;8.20;99.90;;;;;;5030963;28;20544;-81
2023/10/28 06:31:04;;;;;;;3.10;2.95;;;8.30;99.90;;;;;;5021310;28;20205;-80
2023/10/28 06:33:32;;;;;;;0.43;0.43;;;8.30;99.90;;;;;;5020380;28;20213;-81
2023/10/28 06:35:59;;;;;;;2.00;1.90;;;8.30;99.90;;;;;;5023187;28;20205;-81
2023/10/28 06:38:28;;;;;;;1.15;1.10;;;8.40;99.90;;;;;;5028201;28;20260;-81
2023/10/28 06:40:57;;;;;;;1.10;1.10;;;8.40;99.90;;;;;;5020022;28;20217;-82
2023/10/28 06:43:24;;;;;;;2.67;2.35;;;8.50;99.90;;;;;;5012245;28;20232;-82
2023/10/28 06:45:51;;;;;;;1.27;1.23;;;8.70;99.90;;;;;;5027288;28;20474;-81
2023/10/28 06:48:18;;;;;;;1.33;1.23;;;9.00;99.90;;;;;;5021273;28;20205;-81
2023/10/28 06:50:46;;;;;;;0.95;0.95;;;9.30;99.90;;;;;;5028032;28;20213;-80
2023/10/28 06:53:12;;;;;;;0.80;0.80;;;9.50;99.90;;;;;;5016345;28;20275;-79
2023/10/28 06:55:39;;;;;;;0.95;0.95;;;9.60;99.90;;;;;;5020467;28;20217;-81
2023/10/28 06:58:06;;;;;;;0.82;0.82;;;9.60;99.90;;;;;;5019557;28;20206;-81
2023/10/28 07:00:33;;;;;;;0.93;0.93;;;9.50;99.90;;;;;;5020898;28;20360;-82
2023/10/28 07:03:00;;;;;;;1.65;1.58;;;10.50;99.90;;;;;;5026678;28;20256;-82
2023/10/28 07:05:27;;;;;;;0.90;0.90;;;10.80;99.90;;;;;;5021502;28;20217;-81
2023/10/28 07:07:54;;;;;;;1.83;1.73;;;10.90;99.90;;;;;;5019587;28;20240;-81
2023/10/28 07:10:22;;;;;;;0.50;0.50;;;11.20;99.90;;;;;;5029417;28;20201;-83
2023/10/28 07:12:49;;;;;;;1.98;1.88;;;11.90;99.90;;;;;;5027479;28;20212;-82
2023/10/28 07:15:17;;;;;;;0.65;0.65;;;12.80;99.90;;;;;;5036446;28;20212;-82
2023/10/28 07:17:44;;;;;;;0.65;0.65;;;13.90;99.90;;;;;;5025765;28;20236;-82
2023/10/28 07:20:12;;;;;;;0.45;0.45;;;15.50;99.90;;;;;;5033794;28;20288;-83
2023/10/28 07:22:41;;;;;;;0.50;0.50;;;16.00;99.90;;;;;;5022935;28;20328;-83
2023/10/28 07:25:09;;;;;;;0.60;0.60;;;16.60;99.90;;;;;;5017647;28;20421;-83
2023/10/28 07:27:37;;;;;;;1.23;1.23;;;15.70;99.90;;;;;;5023776;28;20518;-83
2023/10/28 07:30:05;;;;;;;0.80;0.80;;;16.40;99.90;;;;;;5035802;28;20492;-83
2023/10/28 07:32:33;;;;;;;0.80;0.80;;;17.50;99.90;;;;;;5023937;28;20486;-82
2023/10/28 07:34:59;;;;;;;0.80;0.80;;;18.20;99.90;;;;;;5020312;28;20912;-81
2023/10/28 07:37:27;;;;;;;0.80;0.80;;;18.40;99.90;;;;;;5022375;28;20413;-81
2023/10/28 07:39:53;;;;;;;0.70;0.70;;;18.00;99.90;;;;;;5032619;28;20503;-81
2023/10/28 07:42:23;;;;;;;3.53;1.47;;;18.20;99.90;;;;;;5034400;28;20484;-82
2023/10/28 07:44:51;;;;;;;0.83;0.83;;;18.00;99.90;;;;;;5021200;28;20409;-81
2023/10/28 07:47:18;;;;;;;2.00;1.90;;;18.10;99.90;;;;;;5017460;28;20630;-81
2023/10/28 07:49:45;;;;;;;2.10;2.00;;;18.30;99.90;;;;;;5026620;28;20647;-81
2023/10/28 07:52:12;;;;;;;0.90;0.90;;;18.60;99.90;;;;;;5018884;28;20443;-80
2023/10/28 07:54:40;;;;;;;0.60;0.60;;;18.40;99.90;;;;;;5027921;28;20414;-82
2023/10/28 07:57:07;;;;;;;1.27;1.20;;;18.30;99.90;;;;;;5027696;28;20443;-82
2023/10/28 07:59:35;;;;;;;0.60;0.60;;;18.20;99.90;;;;;;5019511;28;20497;-82
2023/10/28 08:02:02;;;;;;;0.80;0.80;;;16.20;99.90;;;;;;5020102;28;20426;-82
2023/10/28 08:04:29;;;;;;;0.70;0.70;;;14.20;99.90;;;;;;5012394;28;20422;-81
2023/10/28 08:06:56;;;;;;;0.70;0.70;;;13.20;99.90;;;;;;5012076;28;20805;-83
2023/10/28 08:09:23;;;;;;;0.67;0.67;;;12.90;99.90;;;;;;5014102;28;20514;-81
2023/10/28 08:11:50;;;;;;;0.90;0.90;;;12.90;99.90;;;;;;5015139;28;20649;-79
2023/10/28 08:14:17;;;;;;;1.30;1.27;;;14.10;99.90;;;;;;5015485;28;20453;-79
2023/10/28 08:16:45;;;;;;;0.50;0.50;;;14.20;99.90;;;;;;5016200;28;20417;-79
2023/10/28 08:19:12;;;;;;;1.00;1.00;;;14.80;99.90;;;;;;5024008;28;20453;-80
2023/10/28 08:21:39;;;;;;;0.70;0.70;;;16.00;99.90;;;;;;5021110;28;20450;-79
2023/10/28 08:24:08;;;;;;;0.70;0.70;;;16.60;99.90;;;;;;5010102;28;20650;-79
2023/10/28 08:26:36;;;;;;;0.90;0.90;;;16.30;99.90;;;;;;5023037;28;20518;-79
2023/10/28 08:29:04;;;;;;;0.70;0.70;;;16.50;99.90;;;;;;5018034;28;20415;-79
2023/10/28 08:31:30;;;;;;;1.13;1.13;;;15.70;99.90;;;;;;5011931;28;20475;-81
2023/10/28 08:33:58;;;;;;;2.87;1.73;;;14.70;99.90;;;;;;5023471;28;20465;-81
2023/10/28 08:36:25;;;;;;;0.60;0.60;;;14.30;99.90;;;;;;5020377;28;20418;-80
2023/10/28 08:38:52;;;;;;;1.20;1.20;;;13.90;99.90;;;;;;5012859;28;20787;-80
2023/10/28 08:41:21;;;;;;;1.13;1.03;;;13.70;99.90;;;;;;5024491;28;20494;-80
2023/10/28 08:43:50;;;;;;;0.60;0.60;;;13.40;99.90;;;;;;5026413;28;20702;-78
2023/10/28 08:46:17;;;;;;;0.80;0.80;;;13.40;99.90;;;;;;5019983;28;20467;-79
2023/10/28 08:48:44;;;;;;;0.50;0.50;;;13.20;99.90;;;;;;5022398;28;20422;-79
2023/10/28 08:51:14;;;;;;;1.00;1.00;;;13.30;99.90;;;;;;5017460;28;20464;-80
2023/10/28 08:53:44;;;;;;;0.60;0.60;;;13.20;99.90;;;;;;5028519;28;20492;-79
2023/10/28 08:56:17;;;;;;;1.00;1.00;;;13.40;99.90;;;;;;5009327;28;20440;-79
2023/10/28 08:58:48;;;;;;;0.97;0.97;;;13.40;99.90;;;;;;5014452;28;20670;-79
2023/10/28 09:01:17;;;;;;;0.67;0.67;;;13.40;99.90;;;;;;5028141;28;20413;-78
2023/10/28 09:03:47;;;;;;;0.50;0.50;;;13.30;99.90;;;;;;5036765;28;20476;-80
2023/10/28 09:06:14;;;;;;;0.60;0.60;;;13.40;99.90;;;;;;5037565;28;20426;-78
2023/10/28 09:08:41;;;;;;;0.50;0.50;;;13.40;99.90;;;;;;5035376;28;20425;-81
2023/10/28 09:11:10;;;;;;;0.97;0.70;;;13.50;99.90;;;;;;5031368;28;20446;-80
2023/10/28 09:13:38;;;;;;;0.80;0.80;;;13.60;99.90;;;;;;5015467;28;20455;-80
2023/10/28 09:16:05;;;;;;;0.93;0.93;;;13.70;99.90;;;;;;5028848;28;20435;-80
2023/10/28 09:18:39;;;;;;;0.50;0.50;;;13.60;99.90;;;;;;5011843;28;20929;-81
2023/10/28 09:21:09;;;;;;;0.93;0.93;;;13.90;99.90;;;;;;5021943;28;20465;-80
2023/10/28 09:23:41;;;;;;;1.10;1.07;;;14.00;99.90;;;;;;5027160;28;20475;-80
2023/10/28 09:26:09;;;;;;;0.80;0.80;;;14.00;99.90;;;;;;5027067;28;20406;-80
2023/10/28 09:28:44;;;;;;;0.83;0.83;;;14.10;99.90;;;;;;5020888;28;20859;-80
2023/10/28 09:31:11;;;;;;;1.20;1.17;;;14.00;99.90;;;;;;5014984;28;20413;-80
2023/10/28 09:33:39;;;;;;;0.60;0.60;;;14.10;99.90;;;;;;5020765;28;20421;-79
2023/10/28 09:36:07;;;;;;;0.67;0.67;;;14.30;99.90;;;;;;5032660;28;20763;-81
2023/10/28 09:38:36;;;;;;;1.40;1.30;;;14.30;99.90;;;;;;5027683;28;20663;-83
2023/10/28 09:41:07;;;;;;;0.53;0.53;;;14.20;99.90;;;;;;5019731;28;20514;-79
2023/10/28 09:43:37;;;;;;;0.60;0.60;;;14.10;99.90;;;;;;5019337;28;20482;-81
2023/10/28 09:46:06;;;;;;;0.50;0.50;;;14.20;99.90;;;;;;5015298;28;20423;-82
2023/10/28 09:48:39;;;;;;;0.60;0.60;;;14.20;99.90;;;;;;5030463;28;20951;-78
2023/10/28 09:51:07;;;;;;;0.50;0.50;;;14.40;99.90;;;;;;5024974;28;20442;-79
2023/10/28 09:53:37;;;;;;;0.50;0.50;;;14.60;99.90;;;;;;5020580;28;20452;-81
2023/10/28 09:56:06;;;;;;;0.50;0.50;;;14.60;99.90;;;;;;5025560;28;20497;-80
2023/10/28 09:58:42;;;;;;;1.00;1.00;;;14.50;99.90;;;;;;5022133;28;20702;-79
2023/10/28 10:01:19;;;;;;;0.77;0.77;;;14.40;99.90;;;;;;5028372;28;20465;-81
2023/10/28 10:04:13;;;;;;;0.60;0.60;;;14.30;99.90;;;;;;5024402;28;20487;-79
2023/10/28 10:06:40;;;;;;;0.70;0.70;;;14.10;99.90;;;;;;5019784;28;20473;-80
2023/10/28 10:09:12;;;;;;;0.60;0.60;;;14.10;99.90;;;;;;5021869;28;20447;-79
2023/10/28 10:11:42;;;;;;;0.83;0.83;;;13.80;99.90;;;;;;5018097;28;20449;-78
2023/10/28 10:14:11;;;;;;;0.50;0.50;;;13.80;99.90;;;;;;5018292;28;20451;-76
2023/10/28 10:16:41;;;;;;;0.83;0.83;;;13.90;99.90;;;;;;5016119;28;20451;-78
2023/10/28 10:19:17;;;;;;;0.60;0.60;;;14.00;99.90;;;;;;5016519;28;20481;-80
2023/10/28 10:21:51;;;;;;;0.60;0.60;;;14.10;99.90;;;;;;5019627;28;20521;-80
2023/10/28 10:24:22;;;;;;;0.60;0.60;;;14.00;99.90;;;;;;5023816;28;20893;-79
2023/10/28 10:26:57;;;;;;;0.67;0.67;;;14.30;99.90;;;;;;5018552;28;20980;-80
2023/10/28 10:29:26;;;;;;;2.93;1.43;;;14.20;99.90;;;;;;5013157;28;20471;-85
2023/10/28 10:31:56;;;;;;;0.53;0.53;;;14.00;99.90;;;;;;5019391;28;20421;-79
2023/10/28 10:34:43;;;;;;;0.50;0.50;;;14.10;99.90;;;;;;5014844;28;20459;-79
2023/10/28 10:37:24;;;;;;;0.50;0.50;;;14.10;99.90;;;;;;5017705;28;20477;-78
2023/10/28 10:39:53;;;;;;;0.70;0.70;;;14.10;99.90;;;;;;5023088;28;20426;-79
2023/10/28 10:42:25;;;;;;;0.50;0.50;;;14.30;99.90;;;;;;5019410;28;20488;-79
2023/10/28 10:44:52;;;;;;;0.50;0.50;;;14.30;99.90;;;;;;5021982;28;20909;-78
2023/10/28 10:47:21;;;;;;;0.80;0.80;;;14.30;99.90;;;;;;5011291;28;20777;-81
2023/10/28 10:49:49;;;;;;;0.60;0.60;;;14.30;99.90;;;;;;5024071;28;20418;-82
2023/10/28 10:52:18;;;;;;;1.27;1.17;;;14.30;99.90;;;;;;5025056;28;20443;-79
2023/10/28 10:54:46;;;;;;;0.60;0.60;;;14.10;99.90;;;;;;5033483;28;20426;-79
2023/10/28 10:57:13;;;;;;;0.60;0.60;;;14.10;99.90;;;;;;5018862;28;20669;-77
2023/10/28 10:59:40;;;;;;;1.33;1.23;;;14.10;99.90;;;;;;5018398;28;20473;-78
2023/10/28 11:02:10;;;;;;;0.83;0.83;;;14.00;99.90;;;;;;5018872;28;20443;-78
2023/10/28 11:04:39;;;;;;;0.70;0.70;;;14.00;99.90;;;;;;5007933;28;20487;-78
2023/10/28 11:07:07;;;;;;;0.90;0.90;;;14.00;99.90;;;;;;5012129;28;20421;-78
2023/10/28 11:09:35;;;;;;;0.80;0.80;;;14.00;99.90;;;;;;5025817;28;20505;-80
2023/10/28 11:12:02;;;;;;;1.23;1.23;;;13.90;99.90;;;;;;5020127;28;20436;-79
2023/10/28 11:14:29;;;;;;;4.73;1.53;;;14.00;99.90;;;;;;5021447;28;20457;-78
2023/10/28 11:16:57;;;;;;;0.60;0.60;;;14.00;99.90;;;;;;5010756;28;20921;-78
2023/10/28 11:19:24;;;;;;;0.50;0.50;;;14.10;99.90;;;;;;5024953;28;20448;-79
2023/10/28 11:21:51;;;;;;;0.80;0.80;;;14.20;99.90;;;;;;5018297;28;20467;-79
2023/10/28 11:24:19;;;;;;;0.60;0.60;;;14.20;99.90;;;;;;5020170;28;20543;-79
2023/10/28 11:26:49;;;;;;;0.50;0.50;;;14.10;99.90;;;;;;5015481;28;20886;-77
2023/10/28 11:29:16;;;;;;;0.60;0.60;;;14.10;99.90;;;;;;5024318;28;20471;-80
2023/10/28 11:31:45;;;;;;;0.63;0.63;;;14.20;99.90;;;;;;5017297;28;20425;-78
2023/10/28 11:34:13;;;;;;;0.80;0.80;;;14.10;99.90;;;;;;5017122;28;20562;-79
2023/10/28 11:36:41;;;;;;;0.87;0.87;;;14.20;99.90;;;;;;5012720;28;20633;-80
2023/10/28 11:39:13;;;;;;;0.83;0.83;;;14.10;99.90;;;;;;5021004;28;20620;-77
2023/10/28 11:41:49;;;;;;;0.70;0.70;;;14.10;99.90;;;;;;5018465;28;20455;-78
2023/10/28 11:44:16;;;;;;;0.60;0.60;;;14.20;99.90;;;;;;5017664;28;20745;-80
2023/10/28 11:46:44;;;;;;;0.50;0.50;;;14.20;99.90;;;;;;5011586;28;20435;-78
2023/10/28 11:49:11;;;;;;;0.50;0.50;;;14.10;99.90;;;;;;5019367;28;20447;-78
2023/10/28 11:51:38;;;;;;;0.60;0.60;;;14.00;99.90;;;;;;5009197;28;20457;-78
2023/10/28 11:54:05;;;;;;;0.80;0.80;;;13.90;99.90;;;;;;5026889;28;20424;-79
2023/10/28 11:56:32;;;;;;;0.70;0.70;;;13.80;99.90;;;;;;5013502;28;20972;-78
2023/10/28 11:59:01;;;;;;;0.50;0.50;;;13.90;99.90;;;;;;5016053;28;20788;-79
2023/10/28 12:01:31;;;;;;;1.10;1.10;;;13.70;99.90;;;;;;5023396;28;20426;-81
2023/10/28 12:04:00;;;;;;;0.80;0.80;;;13.70;99.90;;;;;;5021296;28;20613;-79
2023/10/28 12:06:27;;;;;;;0.60;0.60;;;13.70;99.90;;;;;;5022223;28;20447;-78
2023/10/28 12:09:00;;;;;;;0.50;0.50;;;13.70;99.90;;;;;;5030781;28;20426;-79
2023/10/28 12:11:28;;;;;;;0.50;0.50;;;13.70;99.90;;;;;;5027330;28;20417;-80
2023/10/28 12:13:58;;;;;;;0.50;0.50;;;13.70;99.90;;;;;;5018501;28;21009;-78
2023/10/28 12:16:26;;;;;;;0.50;0.50;;;13.80;99.90;;;;;;5025294;28;20638;-79
2023/10/28 12:18:54;;;;;;;0.50;0.50;;;13.80;99.90;;;;;;5025370;28;21021;-79
2023/10/28 12:21:21;;;;;;;0.60;0.60;;;13.70;99.90;;;;;;5016089;28;20797;-83
2023/10/28 12:23:48;;;;;;;0.50;0.50;;;13.60;99.90;;;;;;5025136;28;20557;-78
2023/10/28 12:26:17;;;;;;;0.80;0.80;;;13.60;99.90;;;;;;5027688;28;20442;-78
2023/10/28 12:28:47;;;;;;;0.60;0.60;;;13.60;99.90;;;;;;5011435;28;20418;-81
2023/10/28 12:31:24;;;;;;;0.60;0.60;;;13.50;99.90;;;;;;5024807;28;20409;-79
2023/10/28 12:33:51;;;;;;;0.60;0.60;;;13.40;99.90;;;;;;5039507;28;20617;-79
2023/10/28 12:36:19;;;;;;;2.03;1.93;;;13.30;99.90;;;;;;5031273;28;20469;-78
2023/10/28 12:38:47;;;;;;;0.50;0.50;;;13.30;99.90;;;;;;5034547;28;20440;-78
2023/10/28 12:41:14;;;;;;;0.50;0.50;;;13.20;99.90;;;;;;5036697;28;20722;-79
2023/10/28 12:43:41;;;;;;;0.68;0.68;;;13.20;99.90;;;;;;5033445;28;20505;-81
2023/10/28 12:46:10;;;;;;;0.60;0.60;;;13.20;99.90;;;;;;5024426;28;20198;-80
2023/10/28 12:48:37;;;;;;;0.60;0.60;;;13.10;99.90;;;;;;5028140;28;20247;-78
2023/10/28 12:51:04;;;;;;;1.55;1.55;;;12.90;99.90;;;;;;5028341;28;20523;-79
2023/10/28 12:53:32;;;;;;;0.50;0.50;;;12.60;99.90;;;;;;5030063;28;20403;-80
2023/10/28 12:55:59;;;;;;;0.60;0.60;;;12.20;99.90;;;;;;5022859;28;20475;-80
2023/10/28 12:58:29;;;;;;;0.45;0.45;;;12.00;99.90;;;;;;5028385;28;20269;-79